Airfield :
LOGIN :

Register | Disclaimer

   EN    FR    IT 

 










Legend :    VFR   Marginal VFR   IFR   Intensive IFR   Very Intensive IFR
Visi :
Ceiling :
>= 8 km
>= 3000ft
5 to 8 km
1000 to 3000 ft
1500m to 5 km
500 to 1000 ft
800 to 1500m
200 to 500 ft
< 800m
< 200 ft
Symbols :   Thunderstorms  Fog  Heavy snow  Heavy precipitations  Wind > 20 kt
SIGMETs :     Misc.  Thunderstorms  Icing  Turbulence  Mountain Waves  Volcanic Ashes






- Airport Elevation : 36 ft
- IATA code : GJL


DAAV - Jijel Ferhat Abbas

CURRENT METAR :
  • 141400Z 36004KT 9999 FEW020 BKN200 19/10 Q1004

EXPIRED METARs :
  • 141300Z 34007KT 9999 FEW020 BKN200 18/10 Q1005
  • 141200Z 34005KT 9999 FEW020 BKN200 19/10 Q1006

TAF TAF DAAV
Valid from the 14 at 12:00 until the 15 at 12:00 UTC


141100Z 1412/1512 24012KT 9999 FEW020 SCT200
PROB30
TEMPO 1412/1418 FEW020TCU
BECMG 1418/1420 16008KT
PROB30
TEMPO 1500/1512 5000 -TSRA FEW020CB BKN030



MET'MAP, your aeronautical weather chart ! - Copyright ORBIFLY December 2007 - Disclaimer

ORBIFLY MET'MAP TEAM :

Programming & Development : Alexandra Zaïnal
Concept & Development : Baudouin d'Aumeries
Co-Development & Prog : Marc-Olivier Méhu
Technical & hardware support : Manuel Goepfert

Contact : metmap@orbifly.com




SOURCES & CREDITS :

   NOAA